sensor_id;sensor_type;location;lat;lon;timestamp;pressure;altitude;pressure_sealevel;temperature;humidity
45991;BME280;31721;41.740;-88.000;2023-10-08T00:01:24;99216.79;;;12.76;33.55
45991;BME280;31721;41.740;-88.000;2023-10-08T00:03:53;99217.32;;;12.72;33.44
45991;BME280;31721;41.740;-88.000;2023-10-08T00:06:21;99217.43;;;12.65;33.82
45991;BME280;31721;41.740;-88.000;2023-10-08T00:08:50;99217.08;;;12.60;34.02
45991;BME280;31721;41.740;-88.000;2023-10-08T00:11:18;99217.04;;;12.60;34.01
45991;BME280;31721;41.740;-88.000;2023-10-08T00:13:46;99215.72;;;12.59;34.35
45991;BME280;31721;41.740;-88.000;2023-10-08T00:16:14;99215.10;;;12.58;34.59
45991;BME280;31721;41.740;-88.000;2023-10-08T00:18:42;99216.55;;;12.53;34.45
45991;BME280;31721;41.740;-88.000;2023-10-08T00:21:10;99215.61;;;12.49;34.66
45991;BME280;31721;41.740;-88.000;2023-10-08T00:23:38;99216.31;;;12.49;34.40
45991;BME280;31721;41.740;-88.000;2023-10-08T00:26:06;99212.95;;;12.46;34.72
45991;BME280;31721;41.740;-88.000;2023-10-08T00:28:34;99211.38;;;12.36;34.67
45991;BME280;31721;41.740;-88.000;2023-10-08T00:31:02;99211.56;;;12.21;34.51
45991;BME280;31721;41.740;-88.000;2023-10-08T00:33:30;99212.87;;;12.29;35.11
45991;BME280;31721;41.740;-88.000;2023-10-08T00:35:58;99213.46;;;12.20;34.93
45991;BME280;31721;41.740;-88.000;2023-10-08T00:38:26;99217.34;;;12.16;35.12
45991;BME280;31721;41.740;-88.000;2023-10-08T00:40:54;99217.93;;;12.18;35.21
45991;BME280;31721;41.740;-88.000;2023-10-08T00:43:30;99220.09;;;12.12;35.32
45991;BME280;31721;41.740;-88.000;2023-10-08T00:45:58;99219.67;;;12.07;35.24
45991;BME280;31721;41.740;-88.000;2023-10-08T00:48:26;99219.41;;;11.93;35.49
45991;BME280;31721;41.740;-88.000;2023-10-08T00:50:54;99218.28;;;11.98;35.45
45991;BME280;31721;41.740;-88.000;2023-10-08T00:53:22;99219.47;;;11.91;35.49
45991;BME280;31721;41.740;-88.000;2023-10-08T00:55:50;99220.74;;;11.86;35.64
45991;BME280;31721;41.740;-88.000;2023-10-08T00:58:18;99220.15;;;11.87;35.76
45991;BME280;31721;41.740;-88.000;2023-10-08T01:00:47;99217.45;;;11.87;35.79
45991;BME280;31721;41.740;-88.000;2023-10-08T01:03:15;99220.27;;;11.93;35.98
45991;BME280;31721;41.740;-88.000;2023-10-08T01:05:43;99218.90;;;11.82;35.89
45991;BME280;31721;41.740;-88.000;2023-10-08T01:08:11;99217.25;;;11.72;35.86
45991;BME280;31721;41.740;-88.000;2023-10-08T01:10:40;99219.02;;;11.74;35.97
45991;BME280;31721;41.740;-88.000;2023-10-08T01:13:08;99216.53;;;11.74;36.69
45991;BME280;31721;41.740;-88.000;2023-10-08T01:15:35;99216.03;;;11.69;36.24
45991;BME280;31721;41.740;-88.000;2023-10-08T01:18:04;99216.88;;;11.78;36.29
45991;BME280;31721;41.740;-88.000;2023-10-08T01:20:32;99213.30;;;11.69;36.25
45991;BME280;31721;41.740;-88.000;2023-10-08T01:23:00;99210.21;;;11.59;36.63
45991;BME280;31721;41.740;-88.000;2023-10-08T01:25:28;99209.32;;;11.63;36.90
45991;BME280;31721;41.740;-88.000;2023-10-08T01:27:57;99203.19;;;11.55;36.79
45991;BME280;31721;41.740;-88.000;2023-10-08T01:30:24;99204.27;;;11.48;36.84
45991;BME280;31721;41.740;-88.000;2023-10-08T01:32:52;99203.39;;;11.43;37.04
45991;BME280;31721;41.740;-88.000;2023-10-08T01:35:20;99203.17;;;11.56;36.77
45991;BME280;31721;41.740;-88.000;2023-10-08T01:37:48;99205.40;;;11.48;37.14
45991;BME280;31721;41.740;-88.000;2023-10-08T01:40:16;99204.67;;;11.48;37.09
45991;BME280;31721;41.740;-88.000;2023-10-08T01:42:44;99206.14;;;11.43;36.96
45991;BME280;31721;41.740;-88.000;2023-10-08T01:45:12;99208.94;;;11.33;37.29
45991;BME280;31721;41.740;-88.000;2023-10-08T01:47:40;99206.66;;;11.40;37.54
45991;BME280;31721;41.740;-88.000;2023-10-08T01:50:09;99203.76;;;11.45;37.47
45991;BME280;31721;41.740;-88.000;2023-10-08T01:52:37;99202.78;;;11.42;37.58
45991;BME280;31721;41.740;-88.000;2023-10-08T01:55:05;99203.71;;;11.40;37.41
45991;BME280;31721;41.740;-88.000;2023-10-08T01:57:33;99199.46;;;11.26;37.65
45991;BME280;31721;41.740;-88.000;2023-10-08T02:00:01;99197.21;;;11.30;37.77
45991;BME280;31721;41.740;-88.000;2023-10-08T02:02:29;99196.97;;;11.32;38.02
45991;BME280;31721;41.740;-88.000;2023-10-08T02:04:57;99198.43;;;11.27;38.00
45991;BME280;31721;41.740;-88.000;2023-10-08T02:07:26;99201.21;;;11.26;38.16
45991;BME280;31721;41.740;-88.000;2023-10-08T02:09:53;99198.97;;;11.23;38.18
45991;BME280;31721;41.740;-88.000;2023-10-08T02:12:21;99200.19;;;11.23;38.35
45991;BME280;31721;41.740;-88.000;2023-10-08T02:14:49;99201.24;;;11.26;38.33
45991;BME280;31721;41.740;-88.000;2023-10-08T02:17:18;99198.50;;;11.16;38.19
45991;BME280;31721;41.740;-88.000;2023-10-08T02:19:46;99197.92;;;11.11;38.15
45991;BME280;31721;41.740;-88.000;2023-10-08T02:22:14;99196.12;;;11.08;38.38
45991;BME280;31721;41.740;-88.000;2023-10-08T02:24:42;99195.56;;;11.11;38.68
45991;BME280;31721;41.740;-88.000;2023-10-08T02:27:10;99195.38;;;11.00;38.65
45991;BME280;31721;41.740;-88.000;2023-10-08T02:29:39;99194.29;;;10.99;39.10
45991;BME280;31721;41.740;-88.000;2023-10-08T02:32:06;99194.64;;;10.95;38.97
45991;BME280;31721;41.740;-88.000;2023-10-08T02:34:34;99190.40;;;10.89;39.13
45991;BME280;31721;41.740;-88.000;2023-10-08T02:37:03;99186.94;;;10.85;39.02
45991;BME280;31721;41.740;-88.000;2023-10-08T02:39:31;99186.20;;;10.84;39.23
45991;BME280;31721;41.740;-88.000;2023-10-08T02:41:59;99187.66;;;10.91;39.27
45991;BME280;31721;41.740;-88.000;2023-10-08T02:44:27;99184.21;;;10.79;39.30
45991;BME280;31721;41.740;-88.000;2023-10-08T02:46:55;99182.81;;;10.73;39.41
45991;BME280;31721;41.740;-88.000;2023-10-08T02:49:23;99182.22;;;10.76;39.58
45991;BME280;31721;41.740;-88.000;2023-10-08T02:51:53;99181.13;;;10.73;39.62
45991;BME280;31721;41.740;-88.000;2023-10-08T02:54:22;99180.81;;;10.64;39.67
45991;BME280;31721;41.740;-88.000;2023-10-08T02:56:52;99180.92;;;10.61;39.85
45991;BME280;31721;41.740;-88.000;2023-10-08T02:59:20;99177.72;;;10.56;39.89
45991;BME280;31721;41.740;-88.000;2023-10-08T03:01:48;99173.92;;;10.56;39.88
45991;BME280;31721;41.740;-88.000;2023-10-08T03:04:17;99171.92;;;10.39;39.75
45991;BME280;31721;41.740;-88.000;2023-10-08T03:06:45;99169.70;;;10.38;40.18
45991;BME280;31721;41.740;-88.000;2023-10-08T03:09:13;99168.04;;;10.43;40.49
45991;BME280;31721;41.740;-88.000;2023-10-08T03:11:41;99167.21;;;10.33;40.64
45991;BME280;31721;41.740;-88.000;2023-10-08T03:14:09;99166.73;;;10.45;40.52
45991;BME280;31721;41.740;-88.000;2023-10-08T03:16:37;99167.65;;;10.42;40.64
45991;BME280;31721;41.740;-88.000;2023-10-08T03:19:05;99165.91;;;10.40;40.65
45991;BME280;31721;41.740;-88.000;2023-10-08T03:21:34;99163.80;;;10.27;40.70
45991;BME280;31721;41.740;-88.000;2023-10-08T03:24:02;99159.87;;;10.29;40.56
45991;BME280;31721;41.740;-88.000;2023-10-08T03:26:31;99158.82;;;10.20;40.88
45991;BME280;31721;41.740;-88.000;2023-10-08T03:29:00;99160.47;;;10.22;41.24
45991;BME280;31721;41.740;-88.000;2023-10-08T03:31:29;99160.34;;;10.13;41.21
45991;BME280;31721;41.740;-88.000;2023-10-08T03:33:57;99157.68;;;10.14;41.33
45991;BME280;31721;41.740;-88.000;2023-10-08T03:36:25;99155.71;;;10.13;41.29
45991;BME280;31721;41.740;-88.000;2023-10-08T03:38:53;99155.05;;;10.11;41.40
45991;BME280;31721;41.740;-88.000;2023-10-08T03:41:23;99154.75;;;10.08;41.45
45991;BME280;31721;41.740;-88.000;2023-10-08T03:43:51;99152.26;;;10.05;41.66
45991;BME280;31721;41.740;-88.000;2023-10-08T03:46:20;99149.45;;;10.12;41.61
45991;BME280;31721;41.740;-88.000;2023-10-08T03:48:48;99143.82;;;10.02;41.69
45991;BME280;31721;41.740;-88.000;2023-10-08T03:51:20;99141.23;;;10.05;41.64
45991;BME280;31721;41.740;-88.000;2023-10-08T03:53:48;99136.56;;;9.94;41.71
45991;BME280;31721;41.740;-88.000;2023-10-08T03:56:16;99135.81;;;9.93;41.85
45991;BME280;31721;41.740;-88.000;2023-10-08T03:58:44;99135.10;;;9.89;41.81
45991;BME280;31721;41.740;-88.000;2023-10-08T04:01:12;99134.13;;;9.85;41.83
45991;BME280;31721;41.740;-88.000;2023-10-08T04:03:40;99134.42;;;9.80;41.67
45991;BME280;31721;41.740;-88.000;2023-10-08T04:06:09;99132.57;;;9.79;41.90
45991;BME280;31721;41.740;-88.000;2023-10-08T04:08:36;99128.23;;;9.62;42.33
45991;BME280;31721;41.740;-88.000;2023-10-08T04:11:04;99128.08;;;9.85;42.19
45991;BME280;31721;41.740;-88.000;2023-10-08T04:13:31;99124.44;;;9.83;42.24
45991;BME280;31721;41.740;-88.000;2023-10-08T04:15:59;99123.44;;;9.80;42.32
45991;BME280;31721;41.740;-88.000;2023-10-08T04:18:28;99118.14;;;9.67;42.26
45991;BME280;31721;41.740;-88.000;2023-10-08T04:20:56;99117.02;;;9.69;42.19
45991;BME280;31721;41.740;-88.000;2023-10-08T04:23:24;99117.56;;;9.64;42.29
45991;BME280;31721;41.740;-88.000;2023-10-08T04:25:52;99113.07;;;9.58;42.49
45991;BME280;31721;41.740;-88.000;2023-10-08T04:28:21;99113.84;;;9.70;42.52
45991;BME280;31721;41.740;-88.000;2023-10-08T04:30:49;99110.91;;;9.57;42.59
45991;BME280;31721;41.740;-88.000;2023-10-08T04:33:17;99110.31;;;9.64;42.77
45991;BME280;31721;41.740;-88.000;2023-10-08T04:35:45;99107.74;;;9.55;42.83
45991;BME280;31721;41.740;-88.000;2023-10-08T04:38:13;99106.81;;;9.61;42.73
45991;BME280;31721;41.740;-88.000;2023-10-08T04:40:41;99106.45;;;9.51;42.89
45991;BME280;31721;41.740;-88.000;2023-10-08T04:43:09;99110.04;;;9.57;43.00
45991;BME280;31721;41.740;-88.000;2023-10-08T04:45:37;99105.10;;;9.47;42.91
45991;BME280;31721;41.740;-88.000;2023-10-08T04:48:05;99101.64;;;9.54;43.12
45991;BME280;31721;41.740;-88.000;2023-10-08T04:50:33;99096.55;;;9.57;42.97
45991;BME280;31721;41.740;-88.000;2023-10-08T04:53:01;99097.94;;;9.52;43.18
45991;BME280;31721;41.740;-88.000;2023-10-08T04:55:29;99098.24;;;9.33;43.23
45991;BME280;31721;41.740;-88.000;2023-10-08T04:58:02;99094.13;;;9.45;43.21
45991;BME280;31721;41.740;-88.000;2023-10-08T05:00:29;99094.94;;;9.32;43.46
45991;BME280;31721;41.740;-88.000;2023-10-08T05:02:57;99092.04;;;9.33;43.66
45991;BME280;31721;41.740;-88.000;2023-10-08T05:05:25;99087.60;;;9.37;43.74
45991;BME280;31721;41.740;-88.000;2023-10-08T05:07:52;99088.05;;;9.29;43.78
45991;BME280;31721;41.740;-88.000;2023-10-08T05:10:19;99085.17;;;9.10;44.12
45991;BME280;31721;41.740;-88.000;2023-10-08T05:12:47;99084.49;;;9.19;44.07
45991;BME280;31721;41.740;-88.000;2023-10-08T05:15:15;99084.98;;;9.24;44.04
45991;BME280;31721;41.740;-88.000;2023-10-08T05:17:43;99079.32;;;9.04;44.03
45991;BME280;31721;41.740;-88.000;2023-10-08T05:20:12;99073.29;;;9.10;44.22
45991;BME280;31721;41.740;-88.000;2023-10-08T05:22:40;99072.46;;;8.92;43.86
45991;BME280;31721;41.740;-88.000;2023-10-08T05:25:07;99070.70;;;9.08;44.37
45991;BME280;31721;41.740;-88.000;2023-10-08T05:27:37;99071.13;;;8.96;44.44
45991;BME280;31721;41.740;-88.000;2023-10-08T05:30:06;99071.39;;;8.93;44.49
45991;BME280;31721;41.740;-88.000;2023-10-08T05:32:34;99071.21;;;9.00;44.37
45991;BME280;31721;41.740;-88.000;2023-10-08T05:35:01;99070.70;;;8.76;44.50
45991;BME280;31721;41.740;-88.000;2023-10-08T05:37:30;99069.77;;;8.86;44.74
45991;BME280;31721;41.740;-88.000;2023-10-08T05:39:58;99069.03;;;8.88;44.80
45991;BME280;31721;41.740;-88.000;2023-10-08T05:42:25;99069.70;;;8.86;44.95
45991;BME280;31721;41.740;-88.000;2023-10-08T05:44:52;99069.00;;;8.86;44.81
45991;BME280;31721;41.740;-88.000;2023-10-08T05:47:20;99066.65;;;8.78;44.91
45991;BME280;31721;41.740;-88.000;2023-10-08T05:49:50;99068.29;;;8.82;45.04
45991;BME280;31721;41.740;-88.000;2023-10-08T05:52:18;99067.02;;;8.78;44.94
45991;BME280;31721;41.740;-88.000;2023-10-08T05:54:46;99066.59;;;8.67;45.09
45991;BME280;31721;41.740;-88.000;2023-10-08T05:57:13;99068.11;;;8.65;45.09
45991;BME280;31721;41.740;-88.000;2023-10-08T05:59:43;99065.18;;;8.55;45.44
45991;BME280;31721;41.740;-88.000;2023-10-08T06:02:11;99063.39;;;8.65;45.60
45991;BME280;31721;41.740;-88.000;2023-10-08T06:04:39;99063.19;;;8.63;45.60
45991;BME280;31721;41.740;-88.000;2023-10-08T06:07:06;99062.86;;;8.61;45.67
45991;BME280;31721;41.740;-88.000;2023-10-08T06:09:33;99058.46;;;8.59;45.65
45991;BME280;31721;41.740;-88.000;2023-10-08T06:12:01;99058.63;;;8.51;45.73
45991;BME280;31721;41.740;-88.000;2023-10-08T06:14:29;99056.91;;;8.50;45.84
45991;BME280;31721;41.740;-88.000;2023-10-08T06:16:56;99054.85;;;8.50;45.89
45991;BME280;31721;41.740;-88.000;2023-10-08T06:19:24;99054.16;;;8.51;45.83
45991;BME280;31721;41.740;-88.000;2023-10-08T06:21:51;99053.37;;;8.46;45.80
45991;BME280;31721;41.740;-88.000;2023-10-08T06:24:18;99053.51;;;8.42;45.81
45991;BME280;31721;41.740;-88.000;2023-10-08T06:26:47;99050.52;;;8.45;45.98
45991;BME280;31721;41.740;-88.000;2023-10-08T06:29:15;99045.80;;;8.40;45.87
45991;BME280;31721;41.740;-88.000;2023-10-08T06:31:42;99049.48;;;8.40;46.07
45991;BME280;31721;41.740;-88.000;2023-10-08T06:34:10;99049.08;;;8.39;46.14
45991;BME280;31721;41.740;-88.000;2023-10-08T06:36:37;99051.93;;;8.46;45.88
45991;BME280;31721;41.740;-88.000;2023-10-08T06:39:04;99048.01;;;8.38;46.16
45991;BME280;31721;41.740;-88.000;2023-10-08T06:41:32;99054.72;;;8.43;46.10
45991;BME280;31721;41.740;-88.000;2023-10-08T06:43:59;99054.02;;;8.41;46.11
45991;BME280;31721;41.740;-88.000;2023-10-08T06:46:26;99054.34;;;8.29;46.21
45991;BME280;31721;41.740;-88.000;2023-10-08T06:48:54;99051.29;;;8.31;46.23
45991;BME280;31721;41.740;-88.000;2023-10-08T06:51:21;99048.46;;;8.43;46.09
45991;BME280;31721;41.740;-88.000;2023-10-08T06:53:48;99046.06;;;8.33;46.32
45991;BME280;31721;41.740;-88.000;2023-10-08T06:56:17;99045.26;;;8.25;46.40
45991;BME280;31721;41.740;-88.000;2023-10-08T06:58:50;99046.56;;;8.20;46.35
45991;BME280;31721;41.740;-88.000;2023-10-08T07:01:18;99045.89;;;8.19;46.60
45991;BME280;31721;41.740;-88.000;2023-10-08T07:03:46;99043.74;;;8.20;46.55
45991;BME280;31721;41.740;-88.000;2023-10-08T07:06:14;99040.15;;;8.26;46.66
45991;BME280;31721;41.740;-88.000;2023-10-08T07:08:43;99039.37;;;8.32;46.45
45991;BME280;31721;41.740;-88.000;2023-10-08T07:11:12;99034.34;;;8.26;46.53
45991;BME280;31721;41.740;-88.000;2023-10-08T07:13:40;99030.81;;;8.24;46.35
45991;BME280;31721;41.740;-88.000;2023-10-08T07:16:08;99026.94;;;8.36;46.47
45991;BME280;31721;41.740;-88.000;2023-10-08T07:18:35;99023.58;;;8.27;46.59
45991;BME280;31721;41.740;-88.000;2023-10-08T07:21:03;99019.76;;;8.35;46.47
45991;BME280;31721;41.740;-88.000;2023-10-08T07:23:32;99015.84;;;8.24;46.49
45991;BME280;31721;41.740;-88.000;2023-10-08T07:26:00;99012.35;;;8.22;46.70
45991;BME280;31721;41.740;-88.000;2023-10-08T07:28:28;99008.59;;;8.22;46.72
45991;BME280;31721;41.740;-88.000;2023-10-08T07:30:56;99007.31;;;8.17;46.61
45991;BME280;31721;41.740;-88.000;2023-10-08T07:33:24;99005.27;;;8.27;46.96
45991;BME280;31721;41.740;-88.000;2023-10-08T07:35:51;99001.38;;;8.31;47.05
45991;BME280;31721;41.740;-88.000;2023-10-08T07:38:19;99001.60;;;8.38;47.01
45991;BME280;31721;41.740;-88.000;2023-10-08T07:40:46;99004.04;;;8.32;46.99
45991;BME280;31721;41.740;-88.000;2023-10-08T07:43:14;98999.89;;;8.36;47.03
45991;BME280;31721;41.740;-88.000;2023-10-08T07:45:42;98997.83;;;8.40;47.13
45991;BME280;31721;41.740;-88.000;2023-10-08T07:48:09;98998.10;;;8.33;46.99
45991;BME280;31721;41.740;-88.000;2023-10-08T07:50:42;99001.21;;;8.46;47.50
45991;BME280;31721;41.740;-88.000;2023-10-08T07:53:10;99000.25;;;8.49;47.45
45991;BME280;31721;41.740;-88.000;2023-10-08T07:55:38;98997.92;;;8.57;47.10
45991;BME280;31721;41.740;-88.000;2023-10-08T07:58:06;98995.65;;;8.40;47.23
45991;BME280;31721;41.740;-88.000;2023-10-08T08:00:35;98994.13;;;8.52;47.43
45991;BME280;31721;41.740;-88.000;2023-10-08T08:03:03;98992.34;;;8.45;47.28
45991;BME280;31721;41.740;-88.000;2023-10-08T08:05:31;98989.76;;;8.55;47.45
45991;BME280;31721;41.740;-88.000;2023-10-08T08:07:59;98991.05;;;8.49;47.48
45991;BME280;31721;41.740;-88.000;2023-10-08T08:10:29;98989.35;;;8.48;47.46
45991;BME280;31721;41.740;-88.000;2023-10-08T08:12:56;98989.00;;;8.48;47.45
45991;BME280;31721;41.740;-88.000;2023-10-08T08:15:24;98988.61;;;8.50;47.52
45991;BME280;31721;41.740;-88.000;2023-10-08T08:17:52;98988.83;;;8.56;47.51
45991;BME280;31721;41.740;-88.000;2023-10-08T08:20:19;98989.73;;;8.58;47.79
45991;BME280;31721;41.740;-88.000;2023-10-08T08:22:47;98990.37;;;8.61;47.53
45991;BME280;31721;41.740;-88.000;2023-10-08T08:25:14;98990.50;;;8.58;47.57
45991;BME280;31721;41.740;-88.000;2023-10-08T08:27:42;98989.67;;;8.62;47.71
45991;BME280;31721;41.740;-88.000;2023-10-08T08:30:11;98989.57;;;8.68;47.87
45991;BME280;31721;41.740;-88.000;2023-10-08T08:32:39;98990.41;;;8.71;47.76
45991;BME280;31721;41.740;-88.000;2023-10-08T08:35:08;98992.09;;;8.76;47.59
45991;BME280;31721;41.740;-88.000;2023-10-08T08:37:36;98991.13;;;8.75;47.61
45991;BME280;31721;41.740;-88.000;2023-10-08T08:40:04;98987.29;;;8.79;47.67
45991;BME280;31721;41.740;-88.000;2023-10-08T08:42:34;98993.33;;;8.77;47.63
45991;BME280;31721;41.740;-88.000;2023-10-08T08:45:05;98988.12;;;8.72;47.81
45991;BME280;31721;41.740;-88.000;2023-10-08T08:47:34;98988.25;;;8.72;47.85
45991;BME280;31721;41.740;-88.000;2023-10-08T08:50:03;98986.22;;;8.80;47.92
45991;BME280;31721;41.740;-88.000;2023-10-08T08:52:31;98983.37;;;8.83;48.07
45991;BME280;31721;41.740;-88.000;2023-10-08T08:54:58;98980.33;;;8.77;48.27
45991;BME280;31721;41.740;-88.000;2023-10-08T08:57:26;98978.16;;;8.79;48.16
45991;BME280;31721;41.740;-88.000;2023-10-08T08:59:55;98977.05;;;8.76;48.06
45991;BME280;31721;41.740;-88.000;2023-10-08T09:02:25;98976.55;;;8.70;48.22
45991;BME280;31721;41.740;-88.000;2023-10-08T09:04:53;98974.64;;;8.91;48.41
45991;BME280;31721;41.740;-88.000;2023-10-08T09:07:21;98976.42;;;8.83;47.95
45991;BME280;31721;41.740;-88.000;2023-10-08T09:09:49;98977.81;;;8.92;48.20
45991;BME280;31721;41.740;-88.000;2023-10-08T09:12:18;98975.83;;;8.83;47.98
45991;BME280;31721;41.740;-88.000;2023-10-08T09:14:46;98977.07;;;8.80;47.95
45991;BME280;31721;41.740;-88.000;2023-10-08T09:17:15;98975.08;;;8.74;48.16
45991;BME280;31721;41.740;-88.000;2023-10-08T09:19:45;98974.25;;;8.84;48.19
45991;BME280;31721;41.740;-88.000;2023-10-08T09:22:13;98975.89;;;8.90;48.33
45991;BME280;31721;41.740;-88.000;2023-10-08T09:24:41;98975.84;;;8.81;48.41
45991;BME280;31721;41.740;-88.000;2023-10-08T09:27:11;98977.15;;;8.92;48.58
45991;BME280;31721;41.740;-88.000;2023-10-08T09:29:39;98980.05;;;8.83;48.12
45991;BME280;31721;41.740;-88.000;2023-10-08T09:32:10;98981.90;;;8.87;47.90
45991;BME280;31721;41.740;-88.000;2023-10-08T09:34:39;98981.76;;;8.79;48.36
45991;BME280;31721;41.740;-88.000;2023-10-08T09:37:07;98978.68;;;8.90;48.16
45991;BME280;31721;41.740;-88.000;2023-10-08T09:39:37;98976.30;;;8.80;48.25
45991;BME280;31721;41.740;-88.000;2023-10-08T09:42:07;98973.36;;;8.72;48.40
45991;BME280;31721;41.740;-88.000;2023-10-08T09:44:35;98973.90;;;8.70;48.66
45991;BME280;31721;41.740;-88.000;2023-10-08T09:47:04;98974.20;;;8.90;48.71
45991;BME280;31721;41.740;-88.000;2023-10-08T09:49:33;98975.00;;;8.76;48.51
45991;BME280;31721;41.740;-88.000;2023-10-08T09:52:04;98974.40;;;8.86;48.64
45991;BME280;31721;41.740;-88.000;2023-10-08T09:54:42;98975.24;;;8.93;48.61
45991;BME280;31721;41.740;-88.000;2023-10-08T09:57:10;98972.67;;;8.79;48.62
45991;BME280;31721;41.740;-88.000;2023-10-08T09:59:40;98963.41;;;8.76;48.73
45991;BME280;31721;41.740;-88.000;2023-10-08T10:02:09;98960.82;;;8.87;48.73
45991;BME280;31721;41.740;-88.000;2023-10-08T10:04:43;98956.50;;;8.81;48.92
45991;BME280;31721;41.740;-88.000;2023-10-08T10:07:11;98957.34;;;8.79;48.48
45991;BME280;31721;41.740;-88.000;2023-10-08T10:09:42;98956.19;;;8.88;49.07
45991;BME280;31721;41.740;-88.000;2023-10-08T10:12:11;98949.81;;;8.90;49.14
45991;BME280;31721;41.740;-88.000;2023-10-08T10:14:43;98951.26;;;9.00;48.54
45991;BME280;31721;41.740;-88.000;2023-10-08T10:17:14;98955.37;;;8.93;48.63
45991;BME280;31721;41.740;-88.000;2023-10-08T10:19:41;98949.89;;;8.95;48.84
45991;BME280;31721;41.740;-88.000;2023-10-08T10:22:12;98951.79;;;9.00;48.50
45991;BME280;31721;41.740;-88.000;2023-10-08T10:24:40;98946.76;;;8.86;48.66
45991;BME280;31721;41.740;-88.000;2023-10-08T10:27:15;98941.42;;;8.84;48.73
45991;BME280;31721;41.740;-88.000;2023-10-08T10:29:43;98945.98;;;9.00;48.63
45991;BME280;31721;41.740;-88.000;2023-10-08T10:32:12;98948.58;;;9.10;48.57
45991;BME280;31721;41.740;-88.000;2023-10-08T10:34:41;98947.26;;;8.90;48.35
45991;BME280;31721;41.740;-88.000;2023-10-08T10:37:09;98941.46;;;8.91;48.46
45991;BME280;31721;41.740;-88.000;2023-10-08T10:39:37;98937.93;;;9.04;48.53
45991;BME280;31721;41.740;-88.000;2023-10-08T10:42:04;98952.46;;;8.92;48.55
45991;BME280;31721;41.740;-88.000;2023-10-08T10:44:34;98954.71;;;8.88;48.54
45991;BME280;31721;41.740;-88.000;2023-10-08T10:47:02;98959.24;;;8.83;48.66
45991;BME280;31721;41.740;-88.000;2023-10-08T10:49:29;98959.47;;;9.02;48.65
45991;BME280;31721;41.740;-88.000;2023-10-08T10:51:57;98962.38;;;8.85;48.69
45991;BME280;31721;41.740;-88.000;2023-10-08T10:54:25;98961.28;;;8.92;48.77
45991;BME280;31721;41.740;-88.000;2023-10-08T10:56:54;98957.86;;;8.92;48.79
45991;BME280;31721;41.740;-88.000;2023-10-08T10:59:21;98959.96;;;8.97;48.62
45991;BME280;31721;41.740;-88.000;2023-10-08T11:01:49;98961.69;;;9.03;48.39
45991;BME280;31721;41.740;-88.000;2023-10-08T11:04:18;98961.40;;;9.14;48.63
45991;BME280;31721;41.740;-88.000;2023-10-08T11:06:48;98959.29;;;9.05;48.26
45991;BME280;31721;41.740;-88.000;2023-10-08T11:09:17;98956.86;;;9.05;48.48
45991;BME280;31721;41.740;-88.000;2023-10-08T11:11:47;98960.15;;;9.10;48.51
45991;BME280;31721;41.740;-88.000;2023-10-08T11:14:16;98959.35;;;9.06;48.45
45991;BME280;31721;41.740;-88.000;2023-10-08T11:16:44;98960.31;;;9.23;48.17
45991;BME280;31721;41.740;-88.000;2023-10-08T11:19:12;98954.93;;;9.11;48.43
45991;BME280;31721;41.740;-88.000;2023-10-08T11:21:56;98955.16;;;9.10;48.48
45991;BME280;31721;41.740;-88.000;2023-10-08T11:24:28;98956.19;;;9.08;48.15
45991;BME280;31721;41.740;-88.000;2023-10-08T11:26:56;98958.43;;;8.95;48.47
45991;BME280;31721;41.740;-88.000;2023-10-08T11:29:25;98955.16;;;9.06;48.63
45991;BME280;31721;41.740;-88.000;2023-10-08T11:31:53;98953.18;;;9.06;48.58
45991;BME280;31721;41.740;-88.000;2023-10-08T11:34:21;98949.46;;;9.11;48.63
45991;BME280;31721;41.740;-88.000;2023-10-08T11:36:52;98948.85;;;8.94;48.76
45991;BME280;31721;41.740;-88.000;2023-10-08T11:39:20;98947.74;;;8.99;48.94
45991;BME280;31721;41.740;-88.000;2023-10-08T11:41:56;98947.04;;;9.10;49.08
45991;BME280;31721;41.740;-88.000;2023-10-08T11:44:24;98946.84;;;9.11;49.02
45991;BME280;31721;41.740;-88.000;2023-10-08T11:46:52;98944.16;;;9.00;49.03
45991;BME280;31721;41.740;-88.000;2023-10-08T11:49:20;98943.41;;;8.96;49.08
45991;BME280;31721;41.740;-88.000;2023-10-08T11:51:48;98941.66;;;8.96;49.37
45991;BME280;31721;41.740;-88.000;2023-10-08T11:54:16;98940.74;;;9.05;49.35
45991;BME280;31721;41.740;-88.000;2023-10-08T11:56:48;98939.64;;;8.97;49.28
45991;BME280;31721;41.740;-88.000;2023-10-08T11:59:16;98939.22;;;8.98;49.36
45991;BME280;31721;41.740;-88.000;2023-10-08T12:01:44;98939.37;;;8.96;49.53
45991;BME280;31721;41.740;-88.000;2023-10-08T12:04:12;98938.84;;;8.96;49.58
45991;BME280;31721;41.740;-88.000;2023-10-08T12:06:39;98937.42;;;8.98;49.73
45991;BME280;31721;41.740;-88.000;2023-10-08T12:09:07;98934.80;;;8.99;49.46
45991;BME280;31721;41.740;-88.000;2023-10-08T12:11:35;98933.06;;;9.00;49.43
45991;BME280;31721;41.740;-88.000;2023-10-08T12:14:03;98933.71;;;8.99;49.38
45991;BME280;31721;41.740;-88.000;2023-10-08T12:16:31;98934.26;;;8.97;49.47
45991;BME280;31721;41.740;-88.000;2023-10-08T12:18:59;98938.00;;;8.96;49.55
45991;BME280;31721;41.740;-88.000;2023-10-08T12:21:26;98937.73;;;8.96;49.80
45991;BME280;31721;41.740;-88.000;2023-10-08T12:23:54;98941.44;;;8.95;49.99
45991;BME280;31721;41.740;-88.000;2023-10-08T12:26:22;98939.85;;;8.92;49.89
45991;BME280;31721;41.740;-88.000;2023-10-08T12:28:51;98942.68;;;9.03;49.83
45991;BME280;31721;41.740;-88.000;2023-10-08T12:31:19;98941.18;;;9.16;49.76
45991;BME280;31721;41.740;-88.000;2023-10-08T12:33:47;98937.53;;;9.19;49.79
45991;BME280;31721;41.740;-88.000;2023-10-08T12:36:15;98936.34;;;9.09;49.69
45991;BME280;31721;41.740;-88.000;2023-10-08T12:38:43;98937.01;;;9.08;49.72
45991;BME280;31721;41.740;-88.000;2023-10-08T12:41:11;98937.34;;;9.04;49.70
45991;BME280;31721;41.740;-88.000;2023-10-08T12:43:41;98937.30;;;9.20;49.74
45991;BME280;31721;41.740;-88.000;2023-10-08T12:46:09;98940.06;;;9.11;49.64
45991;BME280;31721;41.740;-88.000;2023-10-08T12:48:37;98941.99;;;9.16;49.93
45991;BME280;31721;41.740;-88.000;2023-10-08T12:51:05;98942.70;;;9.18;50.06
45991;BME280;31721;41.740;-88.000;2023-10-08T12:53:33;98943.14;;;9.21;49.83